Time;durP1;ratioP1;P1;durP2;ratioP2;P2;SDS_P1;SDS_P2;PMS_P1;PMS_P2;Temp;Humidity;BMP_temperature;BMP_pressure;BME280_temperature;BME280_humidity;BME280_pressure;Samples;Min_cycle;Max_cycle;Signal;HPM_P1;HPM_P2
2021/09/30 00:00:33;;;;;;;;;4.00;1.00;;;;;13.67;56.84;102569.13;5036681;28;45323;-80
2021/09/30 00:02:59;;;;;;;;;2.75;2.00;;;;;13.65;56.81;102565.56;5036577;28;45316;-80
2021/09/30 00:05:25;;;;;;;;;4.00;1.25;;;;;13.61;57.00;102557.56;5036358;28;45798;-80
2021/09/30 00:07:51;;;;;;;;;1.00;1.00;;;;;13.60;56.69;102555.78;5036536;28;45690;-80
2021/09/30 00:10:20;;;;;;;;;4.00;1.00;;;;;13.60;56.48;102562.69;5035264;28;45530;-81
2021/09/30 00:12:51;;;;;;;;;1.75;1.00;;;;;13.60;56.80;102560.97;5018771;28;45561;-79
2021/09/30 00:15:41;;;;;;;;;1.75;1.00;;;;;13.58;57.23;102570.38;5036166;28;45284;-80
2021/09/30 00:40:15;;;;;;;;;1.00;1.00;;;;;13.54;57.17;102552.81;5039178;28;45734;-80
2021/09/30 00:50:34;;;;;;;;;1.50;1.50;;;;;13.51;57.27;102547.41;5039534;28;45347;-80
2021/09/30 01:46:21;;;;;;;;;2.75;1.75;;;;;13.34;58.32;102522.00;5038286;28;45319;-79
2021/09/30 02:27:44;;;;;;;;;0.25;0.25;;;;;12.98;58.28;102522.44;5037947;28;45383;-79
2021/09/30 03:00:26;;;;;;;;;0.00;0.00;;;;;12.95;58.56;102486.75;5037101;28;45445;-80
2021/09/30 03:02:54;;;;;;;;;2.25;1.00;;;;;12.93;58.39;102496.16;5036132;28;45687;-80
2021/09/30 03:05:23;;;;;;;;;2.00;0.75;;;;;12.94;58.56;102490.16;5038006;28;45162;-80
2021/09/30 03:07:54;;;;;;;;;2.00;0.00;;;;;12.95;58.57;102491.06;5037994;28;45493;-79
2021/09/30 03:10:22;;;;;;;;;1.00;1.00;;;;;12.94;58.46;102490.16;5036605;28;46002;-80
2021/09/30 03:12:50;;;;;;;;;1.00;1.00;;;;;12.93;58.64;102493.56;5037260;28;45407;-81
2021/09/30 03:17:50;;;;;;;;;1.50;1.00;;;;;12.95;58.54;102507.56;5037726;28;45615;-80
2021/09/30 03:23:08;;;;;;;;;2.00;2.00;;;;;12.92;58.66;102515.16;5037161;28;45249;-80
2021/09/30 03:25:35;;;;;;;;;3.00;1.00;;;;;12.93;58.47;102505.69;5014963;28;45440;-80
2021/09/30 03:28:03;;;;;;;;;1.75;0.00;;;;;12.91;58.74;102505.56;4999376;28;45546;-80
2021/09/30 03:30:30;;;;;;;;;2.00;0.75;;;;;12.87;58.88;102500.06;5016956;28;45275;-81
2021/09/30 03:33:01;;;;;;;;;4.00;1.00;;;;;12.84;58.98;102501.72;5016895;28;45260;-80
2021/09/30 03:35:27;;;;;;;;;0.75;0.75;;;;;12.82;58.87;102500.72;5029112;28;45360;-81
2021/09/30 03:37:53;;;;;;;;;1.75;1.00;;;;;12.81;59.26;102496.31;5019808;28;45268;-81
2021/09/30 03:40:18;;;;;;;;;1.25;1.25;;;;;12.82;58.93;102500.72;5036864;28;46343;-81
2021/09/30 03:42:44;;;;;;;;;1.00;1.00;;;;;12.84;58.96;102511.19;5036937;28;45340;-81
2021/09/30 03:45:10;;;;;;;;;1.00;1.00;;;;;12.84;58.84;102506.91;5019013;28;45361;-81
2021/09/30 03:47:35;;;;;;;;;2.75;2.00;;;;;12.86;59.00;102507.00;5037121;28;45210;-81
2021/09/30 03:50:03;;;;;;;;;4.50;2.00;;;;;12.84;58.90;102506.00;5036244;28;45357;-81
2021/09/30 03:55:23;;;;;;;;;1.50;1.00;;;;;12.82;58.82;102512.78;5035579;28;45355;-81
2021/09/30 04:00:33;;;;;;;;;1.25;1.00;;;;;12.76;58.80;102510.69;5036152;28;45370;-80
2021/09/30 04:02:58;;;;;;;;;1.00;1.00;;;;;12.74;58.77;102520.09;5037434;28;45960;-80
2021/09/30 04:05:24;;;;;;;;;1.50;1.00;;;;;12.73;59.01;102523.53;5036694;28;45450;-81
2021/09/30 04:07:50;;;;;;;;;1.00;1.00;;;;;12.73;58.71;102523.53;5036833;28;45439;-81
2021/09/30 04:10:15;;;;;;;;;2.00;1.00;;;;;12.70;58.65;102524.19;5036729;28;46065;-81
2021/09/30 04:12:41;;;;;;;;;2.25;1.25;;;;;12.66;58.90;102527.44;5036441;28;45382;-80
2021/09/30 04:15:07;;;;;;;;;1.50;1.25;;;;;12.64;59.01;102528.09;5036436;28;45431;-81
2021/09/30 04:17:33;;;;;;;;;2.00;1.50;;;;;12.63;58.96;102532.41;5036326;28;45582;-80
2021/09/30 04:19:58;;;;;;;;;2.00;2.00;;;;;12.61;58.94;102528.81;5018018;28;45619;-82
2021/09/30 04:22:24;;;;;;;;;3.25;1.75;;;;;12.61;59.12;102526.22;5036399;28;45220;-81
2021/09/30 04:24:50;;;;;;;;;2.00;1.50;;;;;12.62;58.80;102516.75;5036407;28;45233;-82
2021/09/30 04:27:16;;;;;;;;;2.00;2.00;;;;;12.66;58.88;102514.44;5036886;28;45198;-82
2021/09/30 04:29:42;;;;;;;;;0.75;0.75;;;;;12.67;58.84;102528.31;5036143;28;45879;-82
2021/09/30 04:32:08;;;;;;;;;2.00;2.00;;;;;12.66;58.58;102524.81;5036280;28;45469;-81
2021/09/30 04:34:33;;;;;;;;;3.50;1.25;;;;;12.66;58.59;102523.91;5037851;28;45324;-81
2021/09/30 04:36:59;;;;;;;;;2.75;1.00;;;;;12.65;58.53;102525.63;5037055;28;45350;-81
2021/09/30 04:39:25;;;;;;;;;1.50;1.00;;;;;12.63;58.58;102521.13;5035985;28;45906;-81
2021/09/30 04:41:51;;;;;;;;;1.00;1.00;;;;;12.60;58.66;102513.13;5035964;28;45292;-82
2021/09/30 04:44:18;;;;;;;;;2.00;2.00;;;;;12.55;58.86;102510.25;5036121;28;45514;-81
2021/09/30 04:46:44;;;;;;;;;3.00;2.75;;;;;12.51;58.98;102511.75;5036903;28;45629;-81
2021/09/30 04:49:10;;;;;;;;;2.00;2.00;;;;;12.48;59.22;102515.81;5035169;28;45643;-82
2021/09/30 04:51:36;;;;;;;;;2.25;2.00;;;;;12.48;59.11;102513.22;5035929;28;45343;-80
2021/09/30 04:54:02;;;;;;;;;2.25;2.25;;;;;12.49;59.21;102513.34;5035934;28;45323;-80
2021/09/30 04:56:29;;;;;;;;;2.75;1.75;;;;;12.48;58.94;102511.56;5036329;28;45467;-81
2021/09/30 04:58:55;;;;;;;;;2.00;2.00;;;;;12.48;59.08;102514.16;5035729;28;46425;-81
2021/09/30 05:01:21;;;;;;;;;3.25;3.00;;;;;12.48;59.34;102518.44;5036260;28;45866;-81
2021/09/30 05:03:47;;;;;;;;;2.00;2.00;;;;;12.45;59.48;102518.25;5036468;28;45395;-81
2021/09/30 05:06:12;;;;;;;;;2.25;2.25;;;;;12.48;59.49;102518.44;5003856;28;45583;-80
2021/09/30 05:08:40;;;;;;;;;2.25;2.25;;;;;12.48;59.50;102510.63;5038154;28;46218;-80
2021/09/30 05:11:05;;;;;;;;;6.00;4.00;;;;;12.50;59.63;102516.84;5039099;28;45814;-80
2021/09/30 05:13:41;;;;;;;;;4.00;4.00;;;;;12.51;59.74;102516.03;5020769;28;45316;-79
2021/09/30 05:16:09;;;;;;;;;4.50;4.25;;;;;12.52;59.57;102517.84;5039415;28;45500;-80
2021/09/30 05:18:41;;;;;;;;;3.00;3.00;;;;;12.55;59.73;102520.63;5041015;28;45430;-80
2021/09/30 05:21:07;;;;;;;;;4.00;4.00;;;;;12.58;59.76;102522.53;5038698;28;45804;-79
2021/09/30 05:23:33;;;;;;;;;3.50;2.00;;;;;12.60;59.85;102520.94;5038964;28;45357;-79
2021/09/30 05:25:59;;;;;;;;;23.00;21.50;;;;;12.60;59.83;102523.53;5038574;28;45607;-79
2021/09/30 05:28:25;;;;;;;;;14.50;12.50;;;;;12.61;59.62;102520.13;5037957;28;45492;-79
2021/09/30 05:30:51;;;;;;;;;6.75;6.50;;;;;12.61;60.04;102520.13;5040907;28;45596;-80
2021/09/30 05:33:16;;;;;;;;;4.75;4.00;;;;;12.59;60.07;102519.13;5043639;28;45456;-79
2021/09/30 05:35:42;;;;;;;;;5.25;2.25;;;;;12.59;59.95;102517.41;5052114;28;45399;-81
2021/09/30 05:38:08;;;;;;;;;2.00;2.00;;;;;12.59;60.11;102522.63;5042076;28;46105;-80
2021/09/30 05:40:34;;;;;;;;;5.00;4.00;;;;;12.59;60.25;102524.34;5042633;28;45332;-81
2021/09/30 05:43:01;;;;;;;;;4.50;4.00;;;;;12.59;60.29;102522.63;5038116;28;45488;-80
2021/09/30 05:45:27;;;;;;;;;5.25;4.00;;;;;12.58;60.19;102520.81;5038606;28;45185;-81
2021/09/30 05:47:53;;;;;;;;;4.75;4.00;;;;;12.59;60.28;102524.34;5038253;28;45415;-80
2021/09/30 05:50:18;;;;;;;;;4.00;2.00;;;;;12.58;59.76;102520.81;5037238;28;45427;-80
2021/09/30 05:52:44;;;;;;;;;4.25;1.25;;;;;12.58;59.73;102523.41;5037143;28;45296;-80
2021/09/30 05:55:11;;;;;;;;;5.75;3.50;;;;;12.59;59.87;102522.63;5045563;28;45319;-80
2021/09/30 05:57:37;;;;;;;;;5.75;4.00;;;;;12.61;59.87;102531.41;5058228;28;46161;-80
2021/09/30 06:04:26;;;;;;;;;4.50;3.00;;;;;12.65;59.71;102514.31;5058371;28;45174;-79
2021/09/30 06:13:40;;;;;;;;;4.00;2.50;;;;;12.68;59.23;102531.03;5058248;28;45442;-81
2021/09/30 06:16:11;;;;;;;;;2.00;2.00;;;;;12.65;59.26;102530.81;5055555;28;45687;-80
2021/09/30 06:18:37;;;;;;;;;6.00;4.00;;;;;12.65;59.33;102527.31;5036952;28;46509;-79
2021/09/30 06:21:02;;;;;;;;;3.00;2.00;;;;;12.63;59.34;102529.81;5050378;28;45276;-80
2021/09/30 06:23:28;;;;;;;;;9.50;8.25;;;;;12.63;59.40;102535.00;5046237;28;45552;-81
2021/09/30 06:25:53;;;;;;;;;9.75;7.50;;;;;12.64;59.31;102530.69;5041467;28;45569;-80
2021/09/30 06:28:19;;;;;;;;;5.00;5.00;;;;;12.63;59.04;102529.81;5023873;28;45555;-80
2021/09/30 06:30:45;;;;;;;;;5.75;4.75;;;;;12.64;59.02;102529.03;5016602;28;45417;-79
2021/09/30 06:33:10;;;;;;;;;5.00;3.75;;;;;12.65;59.03;102532.50;5025979;28;45485;-82
2021/09/30 06:35:36;;;;;;;;;4.25;4.00;;;;;12.65;59.36;102525.63;5038150;28;45352;-77
2021/09/30 06:38:02;;;;;;;;;4.25;4.00;;;;;12.68;59.38;102527.50;5019133;28;46745;-81
2021/09/30 06:40:29;;;;;;;;;9.50;5.25;;;;;12.68;59.42;102520.63;5036723;28;45381;-79
2021/09/30 06:42:55;;;;;;;;;6.50;5.00;;;;;12.72;59.82;102524.31;5036652;28;45516;-76
2021/09/30 06:45:21;;;;;;;;;6.00;5.00;;;;;12.74;59.87;102520.09;5037448;28;45713;-81
2021/09/30 06:47:47;;;;;;;;;4.00;4.00;;;;;12.74;59.89;102514.91;5037109;28;45936;-81
2021/09/30 06:50:14;;;;;;;;;4.00;4.00;;;;;12.72;59.75;102518.22;5035902;28;45435;-77
2021/09/30 06:52:39;;;;;;;;;3.50;3.50;;;;;12.69;60.00;102518.91;5036362;28;45634;-76
2021/09/30 06:55:06;;;;;;;;;5.25;4.25;;;;;12.70;59.97;102516.41;5036964;28;45385;-78
2021/09/30 06:57:32;;;;;;;;;5.75;5.00;;;;;12.74;59.68;102509.69;5036315;28;45372;-82
2021/09/30 07:00:06;;;;;;;;;5.25;4.00;;;;;12.80;59.50;102511.78;5018902;28;45471;-78
2021/09/30 07:02:34;;;;;;;;;4.50;4.00;;;;;12.82;59.42;102507.59;5036549;28;45434;-77
2021/09/30 07:04:59;;;;;;;;;5.50;5.50;;;;;12.83;59.45;102512.00;5036296;28;45415;-78
2021/09/30 07:07:25;;;;;;;;;6.00;4.00;;;;;12.84;59.54;102509.50;5036877;28;45817;-77
2021/09/30 07:09:51;;;;;;;;;3.00;3.00;;;;;12.83;59.39;102502.50;5037146;28;45308;-77
2021/09/30 07:12:16;;;;;;;;;4.00;4.00;;;;;12.85;59.50;102510.38;5037800;28;45975;-77
2021/09/30 07:14:42;;;;;;;;;5.00;3.75;;;;;12.84;59.25;102509.50;5037504;28;45327;-78
2021/09/30 07:17:08;;;;;;;;;3.00;3.00;;;;;12.83;59.18;102517.19;5036758;28;45336;-79
2021/09/30 07:19:36;;;;;;;;;5.00;4.25;;;;;12.85;59.51;102518.19;5035417;28;45375;-79
2021/09/30 07:22:03;;;;;;;;;3.50;3.50;;;;;12.88;59.54;102522.66;5035747;28;45485;-79
2021/09/30 07:24:29;;;;;;;;;4.00;3.75;;;;;12.91;59.17;102520.28;5036852;28;45461;-79
2021/09/30 07:26:56;;;;;;;;;3.50;3.50;;;;;12.94;58.88;102526.56;5036440;28;45364;-79
2021/09/30 07:29:21;;;;;;;;;7.00;5.25;;;;;12.98;59.08;102525.97;5035072;28;45795;-78
2021/09/30 07:31:47;;;;;;;;;4.00;4.00;;;;;13.01;58.93;102517.44;5036730;28;45456;-80
2021/09/30 07:34:13;;;;;;;;;5.25;3.75;;;;;13.04;59.05;102521.94;5036016;28;45495;-78
2021/09/30 07:36:44;;;;;;;;;4.00;3.00;;;;;13.07;58.66;102516.94;5035940;28;45324;-77
2021/09/30 07:39:11;;;;;;;;;9.25;4.25;;;;;13.11;58.67;102529.34;5017568;28;45891;-78
2021/09/30 07:41:40;;;;;;;;;3.00;3.00;;;;;13.14;58.39;102527.81;5017751;28;45406;-80
2021/09/30 07:44:06;;;;;;;;;4.75;4.00;;;;;13.16;58.21;102520.09;5036311;28;45541;-78
2021/09/30 07:46:34;;;;;;;;;6.50;3.75;;;;;13.18;58.64;102523.69;5036030;28;45800;-79
2021/09/30 07:49:03;;;;;;;;;5.00;5.00;;;;;13.23;58.49;102514.44;5016989;28;45635;-78
2021/09/30 07:51:28;;;;;;;;;4.00;4.00;;;;;13.30;58.31;102516.66;5035130;28;45373;-78
2021/09/30 07:53:54;;;;;;;;;4.00;4.00;;;;;13.39;57.97;102508.53;5029002;28;45374;-77
2021/09/30 07:56:20;;;;;;;;;5.25;4.00;;;;;13.49;58.01;102509.97;5037528;28;46273;-77
2021/09/30 07:58:45;;;;;;;;;6.75;6.00;;;;;13.59;57.79;102511.44;5035297;28;45284;-79
2021/09/30 08:01:11;;;;;;;;;6.00;3.25;;;;;13.65;57.28;102514.41;5035988;28;45440;-78
2021/09/30 08:03:37;;;;;;;;;4.00;3.50;;;;;13.68;57.01;102521.50;5037668;28;45581;-78
2021/09/30 08:06:03;;;;;;;;;4.00;4.00;;;;;13.66;57.04;102524.00;5056208;28;45996;-78
2021/09/30 08:08:29;;;;;;;;;3.00;3.00;;;;;13.64;56.94;102530.81;5035191;28;45809;-78
2021/09/30 08:10:55;;;;;;;;;5.00;3.50;;;;;13.60;57.22;102531.47;5036353;28;45474;-76
2021/09/30 08:13:20;;;;;;;;;4.50;3.00;;;;;13.59;56.64;102534.88;5036058;28;45512;-76
2021/09/30 08:15:46;;;;;;;;;3.00;2.50;;;;;13.56;56.41;102535.56;5035241;28;46192;-77
2021/09/30 08:18:12;;;;;;;;;1.75;1.75;;;;;13.53;56.37;102535.41;5030916;28;45357;-77
2021/09/30 08:20:41;;;;;;;;;3.00;2.00;;;;;13.54;56.11;102534.59;5023825;28;45364;-78
2021/09/30 08:23:12;;;;;;;;;1.50;1.50;;;;;13.52;56.50;102533.59;5017527;28;45365;-79
2021/09/30 08:25:38;;;;;;;;;3.00;1.25;;;;;13.51;56.09;102538.69;5016417;28;47694;-80
2021/09/30 08:28:05;;;;;;;;;1.00;1.00;;;;;13.52;56.38;102538.81;5034844;28;45245;-79
2021/09/30 08:30:31;;;;;;;;;1.25;1.25;;;;;13.54;56.12;102538.88;5035503;28;45450;-77
2021/09/30 08:32:57;;;;;;;;;1.75;1.00;;;;;13.55;56.20;102538.09;5034088;28;45419;-77
2021/09/30 08:35:23;;;;;;;;;2.75;2.00;;;;;13.56;56.42;102543.38;5035017;28;46527;-77
2021/09/30 08:37:49;;;;;;;;;2.00;1.00;;;;;13.58;56.38;102538.28;5035249;28;45300;-76
2021/09/30 08:40:15;;;;;;;;;3.00;2.00;;;;;13.58;56.62;102533.94;5035776;28;45407;-77
2021/09/30 08:42:44;;;;;;;;;3.25;2.25;;;;;13.58;56.19;102531.34;5039031;28;45407;-78
2021/09/30 08:45:11;;;;;;;;;1.25;1.25;;;;;13.57;55.78;102529.56;5019722;28;45631;-77
2021/09/30 08:47:37;;;;;;;;;5.75;4.75;;;;;13.59;56.24;102524.47;5037011;28;45427;-77
2021/09/30 08:50:04;;;;;;;;;2.00;2.00;;;;;13.64;56.38;102519.53;5038638;28;45453;-77
2021/09/30 08:52:29;;;;;;;;;1.25;1.25;;;;;13.65;56.30;102514.41;5037939;28;46728;-77
2021/09/30 08:54:55;;;;;;;;;3.00;1.50;;;;;13.69;56.38;102513.78;5018774;28;45369;-78
2021/09/30 08:57:21;;;;;;;;;3.00;3.00;;;;;13.75;56.12;102514.13;5019193;28;45420;-78
2021/09/30 09:00:07;;;;;;;;;1.25;1.25;;;;;13.78;55.48;102506.53;5036841;28;45552;-79
2021/09/30 09:02:43;;;;;;;;;2.50;0.00;;;;;13.81;55.75;102502.31;5036553;28;45653;-79
2021/09/30 09:05:09;;;;;;;;;1.25;1.25;;;;;13.84;55.27;102508.59;5019994;28;45363;-76
2021/09/30 09:07:35;;;;;;;;;0.75;0.75;;;;;13.87;55.10;102492.25;5037576;28;45437;-80
2021/09/30 09:10:06;;;;;;;;;2.00;0.75;;;;;13.90;55.24;102500.25;5037527;28;45416;-77
2021/09/30 09:12:33;;;;;;;;;1.50;1.25;;;;;13.93;54.68;102484.78;5037350;28;45455;-77
2021/09/30 09:15:00;;;;;;;;;0.00;0.00;;;;;13.96;55.02;102482.34;5037304;28;46260;-78
2021/09/30 09:17:25;;;;;;;;;2.00;0.75;;;;;13.98;54.63;102483.34;5036195;28;45608;-79
2021/09/30 09:19:56;;;;;;;;;0.00;0.00;;;;;14.02;54.74;102482.72;5038351;28;45801;-78
2021/09/30 09:22:31;;;;;;;;;3.00;2.25;;;;;14.14;54.22;102489.44;5020499;28;45501;-81
2021/09/30 09:25:04;;;;;;;;;3.00;1.00;;;;;14.21;53.99;102482.06;5016160;28;47469;-79
2021/09/30 09:27:53;;;;;;;;;0.25;0.25;;;;;14.25;53.29;102477.94;5032479;28;45853;-79
2021/09/30 09:30:39;;;;;;;;;0.00;0.00;;;;;14.29;53.08;102484.22;5041849;28;45257;-79
2021/09/30 09:33:23;;;;;;;;;1.75;0.25;;;;;14.30;52.13;102484.28;5024559;28;45672;-79
2021/09/30 09:35:54;;;;;;;;;1.00;1.00;;;;;14.30;52.31;102492.09;5031907;28;45360;-79
2021/09/30 09:38:21;;;;;;;;;0.00;0.00;;;;;14.32;51.82;102489.56;5037970;28;45378;-79
2021/09/30 09:40:53;;;;;;;;;2.00;2.00;;;;;14.32;51.45;102487.88;5034080;28;45356;-78
2021/09/30 09:43:41;;;;;;;;;1.00;0.00;;;;;14.31;51.53;102488.69;5037849;28;45432;-79
2021/09/30 09:46:09;;;;;;;;;0.75;0.50;;;;;14.33;50.69;102484.47;5036486;28;45495;-79
2021/09/30 09:48:36;;;;;;;;;2.00;0.00;;;;;14.36;50.97;102481.13;5028301;28;45401;-79
2021/09/30 09:51:11;;;;;;;;;0.00;0.00;;;;;14.41;50.44;102484.91;5037310;28;45467;-78
2021/09/30 09:53:37;;;;;;;;;1.00;0.00;;;;;14.46;50.74;102469.53;5041598;28;45335;-78
2021/09/30 09:56:20;;;;;;;;;0.25;0.25;;;;;14.53;50.23;102487.28;5037000;28;46315;-80
2021/09/30 09:58:52;;;;;;;;;0.50;0.50;;;;;14.55;49.12;102472.63;5037372;28;45530;-81
2021/09/30 10:01:28;;;;;;;;;3.50;1.75;;;;;14.59;49.08;102477.19;5048163;28;45587;-78
2021/09/30 10:03:59;;;;;;;;;1.75;0.75;;;;;14.60;48.79;102481.59;5048749;28;45514;-79
2021/09/30 10:06:27;;;;;;;;;0.00;0.00;;;;;14.62;48.75;102473.88;5057714;28;45453;-79
2021/09/30 10:08:53;;;;;;;;;1.00;0.00;;;;;14.65;49.16;102471.41;5057896;28;45421;-80
2021/09/30 10:11:19;;;;;;;;;2.25;0.00;;;;;14.68;48.70;102475.16;5057704;28;45295;-80
2021/09/30 10:13:45;;;;;;;;;1.75;0.00;;;;;14.73;49.03;102472.78;5058328;28;45520;-80
2021/09/30 10:16:18;;;;;;;;;1.00;0.00;;;;;14.80;47.83;102492.25;5057682;28;46082;-80
2021/09/30 10:18:50;;;;;;;;;0.00;0.00;;;;;14.81;47.51;102474.09;5057558;28;45247;-80
2021/09/30 10:21:15;;;;;;;;;0.00;0.00;;;;;14.84;47.07;102479.47;5057619;28;45458;-80
2021/09/30 10:23:41;;;;;;;;;0.25;0.25;;;;;14.85;48.33;102482.97;5058236;28;45347;-79
2021/09/30 10:26:18;;;;;;;;;0.50;0.00;;;;;14.86;48.12;102479.56;5057479;28;45460;-79
2021/09/30 10:28:46;;;;;;;;;0.00;0.00;;;;;14.86;47.93;102470.00;5058090;28;45584;-80
2021/09/30 10:31:31;;;;;;;;;0.00;0.00;;;;;14.91;47.77;102469.38;5043541;28;45501;-80
2021/09/30 10:34:02;;;;;;;;;1.25;0.00;;;;;14.92;47.56;102458.13;5037728;28;45350;-80
2021/09/30 10:36:31;;;;;;;;;0.00;0.00;;;;;14.96;47.95;102462.66;5036475;28;46333;-80
2021/09/30 10:39:18;;;;;;;;;0.00;0.00;;;;;15.00;47.79;102456.81;5037520;28;45841;-79
2021/09/30 10:41:47;;;;;;;;;0.00;0.00;;;;;15.04;47.86;102447.44;5037360;28;45535;-80
2021/09/30 10:44:15;;;;;;;;;2.25;0.00;;;;;15.08;47.96;102445.06;5040300;28;45410;-80
2021/09/30 10:46:42;;;;;;;;;2.00;0.00;;;;;15.13;47.99;102442.69;5038539;28;45938;-79
2021/09/30 10:49:26;;;;;;;;;1.00;1.00;;;;;15.16;48.65;102441.16;5037054;28;45682;-79
2021/09/30 10:52:13;;;;;;;;;1.50;0.50;;;;;15.20;48.24;102433.47;5037338;28;45418;-79
2021/09/30 10:54:40;;;;;;;;;3.25;1.00;;;;;15.24;48.61;102440.66;5037536;28;45423;-80
2021/09/30 10:57:35;;;;;;;;;3.50;1.00;;;;;15.29;48.33;102423.50;5038579;28;46273;-79
2021/09/30 11:00:09;;;;;;;;;1.75;0.00;;;;;15.33;48.68;102415.03;5040865;28;45407;-79
2021/09/30 11:03:01;;;;;;;;;1.25;0.00;;;;;15.39;47.94;102423.16;5037633;28;45353;-80
2021/09/30 11:05:32;;;;;;;;;0.50;0.50;;;;;15.43;48.15;102413.81;5029508;28;45324;-79
2021/09/30 11:08:16;;;;;;;;;0.00;0.00;;;;;15.47;48.10;102405.28;5037168;28;46091;-79
2021/09/30 11:11:01;;;;;;;;;0.00;0.00;;;;;15.52;48.05;102411.66;5019260;28;45751;-80
2021/09/30 11:13:30;;;;;;;;;1.00;1.00;;;;;15.54;47.86;102412.63;5038667;28;45371;-80
2021/09/30 11:15:58;;;;;;;;;0.00;0.00;;;;;15.60;47.18;102407.69;5019552;28;45218;-80
2021/09/30 11:18:49;;;;;;;;;1.00;0.00;;;;;15.60;46.81;102389.44;5037065;28;45436;-80
2021/09/30 11:21:30;;;;;;;;;0.50;0.00;;;;;15.60;47.34;102391.16;5036757;28;45336;-80
2021/09/30 11:24:01;;;;;;;;;1.00;1.00;;;;;15.61;47.13;102390.31;5019237;28;45328;-78
2021/09/30 11:26:30;;;;;;;;;0.75;0.75;;;;;15.62;47.93;102390.41;5037269;28;45270;-84
2021/09/30 11:29:21;;;;;;;;;0.00;0.00;;;;;15.68;46.94;102373.22;5036797;28;45432;-80
2021/09/30 11:31:56;;;;;;;;;1.00;1.00;;;;;15.71;46.30;102386.44;5036836;28;45249;-80
2021/09/30 11:34:26;;;;;;;;;0.00;0.00;;;;;15.73;46.44;102383.09;5037101;28;45272;-81
2021/09/30 11:36:53;;;;;;;;;0.00;0.00;;;;;15.78;46.74;102388.53;5019080;28;45533;-79
2021/09/30 11:39:19;;;;;;;;;0.00;0.00;;;;;15.79;46.26;102396.47;5036366;28;45306;-80
2021/09/30 11:41:46;;;;;;;;;1.00;0.00;;;;;15.82;45.87;102382.66;5036359;28;45434;-80
2021/09/30 11:44:17;;;;;;;;;0.00;0.00;;;;;15.86;45.85;102368.97;5036863;28;45904;-81
2021/09/30 11:46:43;;;;;;;;;2.00;0.25;;;;;15.92;46.36;102377.06;5018821;28;45467;-80
2021/09/30 11:49:12;;;;;;;;;0.00;0.00;;;;;15.99;45.72;102373.03;5036319;28;46555;-80
2021/09/30 11:51:44;;;;;;;;;0.00;0.00;;;;;16.06;45.95;102375.13;5036214;28;45773;-80
2021/09/30 11:54:15;;;;;;;;;0.00;0.00;;;;;16.15;44.89;102374.66;5036618;28;45213;-83
2021/09/30 11:56:52;;;;;;;;;7.25;6.50;;;;;16.21;44.90;102364.47;5039638;28;45381;-84
2021/09/30 11:59:19;;;;;;;;;1.00;1.00;;;;;16.27;44.47;102363.00;5036580;28;45370;-78
2021/09/30 12:01:47;;;;;;;;;0.00;0.00;;;;;16.30;44.29;102361.41;5036516;28;45229;-79
2021/09/30 12:04:36;;;;;;;;;0.25;0.25;;;;;16.32;44.07;102351.94;5033640;28;45504;-81
2021/09/30 12:07:02;;;;;;;;;0.00;0.00;;;;;16.36;44.07;102343.38;5014976;28;45523;-80
2021/09/30 12:09:32;;;;;;;;;0.00;0.00;;;;;16.45;43.75;102339.41;5031145;28;45343;-81
2021/09/30 12:12:00;;;;;;;;;0.25;0.00;;;;;16.52;44.20;102337.13;5018273;28;45598;-81
2021/09/30 12:14:44;;;;;;;;;0.00;0.00;;;;;16.57;44.19;102321.69;5037417;28;45438;-81
2021/09/30 12:17:16;;;;;;;;;0.00;0.00;;;;;16.63;43.59;102321.06;5039497;28;45486;-79
2021/09/30 12:19:48;;;;;;;;;0.00;0.00;;;;;16.73;43.94;102318.00;5024846;28;46986;-80
2021/09/30 12:22:35;;;;;;;;;0.00;0.00;;;;;16.85;42.73;102315.91;5020283;28;45687;-81
2021/09/30 12:25:10;;;;;;;;;0.00;0.00;;;;;16.91;42.64;102309.16;5013274;28;45297;-81
2021/09/30 12:27:38;;;;;;;;;0.00;0.00;;;;;16.98;42.97;102303.38;5037481;28;45322;-80
2021/09/30 12:30:12;;;;;;;;;0.00;0.00;;;;;17.04;43.20;102294.91;5040709;28;45638;-82
2021/09/30 12:32:43;;;;;;;;;0.00;0.00;;;;;17.16;41.86;102298.03;5035672;28;45621;-80
2021/09/30 12:35:22;;;;;;;;;0.50;0.00;;;;;17.23;40.25;102299.19;5031447;28;45296;-80
2021/09/30 12:37:52;;;;;;;;;0.00;0.00;;;;;17.29;40.36;102294.19;5021977;28;45282;-81
2021/09/30 12:40:40;;;;;;;;;0.25;0.00;;;;;17.39;39.82;102295.47;5038161;28;45586;-80
2021/09/30 12:43:17;;;;;;;;;0.25;0.25;;;;;17.48;40.01;102293.22;5039323;28;45272;-80
2021/09/30 12:45:56;;;;;;;;;2.50;1.00;;;;;17.60;40.53;102295.44;5021123;28;45266;-80
2021/09/30 12:48:24;;;;;;;;;1.75;1.00;;;;;17.70;40.21;102292.38;5033008;28;45447;-81
2021/09/30 12:50:58;;;;;;;;;0.00;0.00;;;;;17.83;39.64;102278.00;5042476;28;45375;-84
2021/09/30 12:53:24;;;;;;;;;0.00;0.00;;;;;17.92;39.32;102280.09;5039562;28;45288;-80
2021/09/30 12:55:52;;;;;;;;;0.25;0.00;;;;;17.99;38.85;102265.50;5039033;28;45408;-83
2021/09/30 12:58:51;;;;;;;;;0.00;0.00;;;;;18.12;38.39;102275.63;5020982;28;45408;-80
2021/09/30 13:01:36;;;;;;;;;0.00;0.00;;;;;18.31;38.41;102268.41;4997451;28;45733;-81
2021/09/30 13:04:22;;;;;;;;;1.00;0.00;;;;;18.51;37.82;102256.03;5038607;28;45705;-79
2021/09/30 13:06:51;;;;;;;;;0.00;0.00;;;;;18.60;37.86;102255.47;5024620;28;45347;-82
2021/09/30 13:09:31;;;;;;;;;0.00;0.00;;;;;18.64;36.97;102258.25;5037205;28;45629;-82
2021/09/30 13:12:09;;;;;;;;;0.00;0.00;;;;;18.69;36.96;102240.91;5039017;28;45344;-79
2021/09/30 13:14:56;;;;;;;;;0.00;0.00;;;;;18.72;36.65;102242.78;5037223;28;45641;-79
2021/09/30 13:17:26;;;;;;;;;0.00;0.00;;;;;18.77;37.41;102228.06;5038101;28;45433;-80
2021/09/30 13:19:57;;;;;;;;;0.00;0.00;;;;;18.91;37.37;102239.03;5039662;28;45462;-80
2021/09/30 13:22:33;;;;;;;;;1.75;0.00;;;;;19.12;36.58;102233.63;5027314;28;46449;-82
2021/09/30 13:25:10;;;;;;;;;0.00;0.00;;;;;19.32;35.28;102231.66;5038578;28;45388;-83
2021/09/30 13:27:38;;;;;;;;;1.00;0.00;;;;;19.51;34.97;102231.31;5020210;28;45538;-83
2021/09/30 13:30:07;;;;;;;;;0.00;0.00;;;;;19.63;36.17;102224.72;5038966;28;45610;-81
2021/09/30 13:32:34;;;;;;;;;0.00;0.00;;;;;19.68;34.90;102219.59;5038728;28;45448;-81
2021/09/30 13:35:00;;;;;;;;;0.00;0.00;;;;;19.65;35.85;102223.00;5038934;28;45640;-83
2021/09/30 13:37:27;;;;;;;;;0.00;0.00;;;;;19.68;35.40;102219.59;5021378;28;45400;-83
2021/09/30 13:39:57;;;;;;;;;0.75;0.75;;;;;19.72;36.36;102207.44;5038489;28;45559;-83
2021/09/30 13:42:28;;;;;;;;;0.75;0.50;;;;;19.81;35.51;102207.69;5039457;28;45245;-82
2021/09/30 13:44:54;;;;;;;;;0.00;0.00;;;;;19.83;35.23;102197.22;5040588;28;45406;-82
2021/09/30 13:47:20;;;;;;;;;0.00;0.00;;;;;19.85;35.73;102206.03;5041261;28;45253;-81
2021/09/30 13:49:46;;;;;;;;;0.00;0.00;;;;;19.86;36.03;102203.50;5035329;28;45462;-82
2021/09/30 13:52:12;;;;;;;;;0.75;0.75;;;;;19.83;34.71;102191.94;5059214;28;45898;-81
2021/09/30 13:54:39;;;;;;;;;0.25;0.00;;;;;19.77;35.90;102176.91;5059253;28;45527;-81
2021/09/30 13:57:05;;;;;;;;;0.00;0.00;;;;;19.78;35.06;102179.59;5054155;28;45363;-82
2021/09/30 13:59:31;;;;;;;;;0.00;0.00;;;;;19.84;35.69;102172.72;5039324;28;45484;-79
2021/09/30 14:01:57;;;;;;;;;1.00;0.25;;;;;19.93;35.28;102173.00;5028728;28;45349;-80
2021/09/30 14:04:22;;;;;;;;;0.00;0.00;;;;;19.95;35.06;102166.97;5018256;28;45431;-82
2021/09/30 14:06:49;;;;;;;;;0.00;0.00;;;;;19.98;35.58;102165.28;5033374;28;45472;-81
2021/09/30 14:09:15;;;;;;;;;0.00;0.00;;;;;20.04;34.84;102163.66;5038874;28;45317;-82
2021/09/30 14:11:41;;;;;;;;;2.00;0.00;;;;;20.13;35.65;102154.28;5016810;28;47633;-83
2021/09/30 14:14:07;;;;;;;;;0.50;0.50;;;;;20.21;35.49;102142.22;5040856;28;45510;-85
2021/09/30 14:16:33;;;;;;;;;0.00;0.00;;;;;20.30;34.94;102136.31;5039504;28;45237;-85
2021/09/30 14:18:59;;;;;;;;;0.00;0.00;;;;;20.37;34.92;102130.34;5020498;28;46994;-85
2021/09/30 14:21:25;;;;;;;;;0.00;0.00;;;;;20.51;34.75;102122.78;5037042;28;46536;-84
2021/09/30 14:23:51;;;;;;;;;0.00;0.00;;;;;20.71;34.75;102118.91;5038920;28;45342;-86
2021/09/30 14:26:16;;;;;;;;;0.00;0.00;;;;;21.00;33.55;102123.09;5038599;28;46011;-86
2021/09/30 14:28:42;;;;;;;;;0.50;0.00;;;;;21.18;33.96;102118.22;5017953;28;45522;-87